Herbine, Arkansas
Current Conditions -  °F | °C
As of 9:53 PM on Sunday 25 Jan 2015 (Local Time) from KPBF Reporting Station
Scattered Clouds Scattered Clouds  
Wind Chill: 41°   Ceiling: Unl
Heat Index: 47°   Visibility: 10mi
Dew Point: 32°   Wind: 14mph
Humidity: 56%   Direction: 310°NW
Pressure: 29.98"   Gusts: NA
Location:  33.947°N, 92.1633°W
Report Text: KPBF 260353Z AUTO 31012KT 10SM SCT046 08/00 A2998 RMK AO2 SLP153 T00830000
Loading
Personal Weather Stations






























Interactive Weather Map New forecast layout! Learn more

10-Day Weather Forecast

Advertisements
Track Severe Weather on mobile